sensor_id;sensor_type;location;lat;lon;timestamp;P1;durP1;ratioP1;P2;durP2;ratioP2
11111;SDS011;5609;49.466;8.468;2023-05-07T00:00:56;2.93;;;2.67;;
11111;SDS011;5609;49.466;8.468;2023-05-07T00:03:24;3.13;;;2.80;;
11111;SDS011;5609;49.466;8.468;2023-05-07T00:05:52;2.90;;;2.60;;
11111;SDS011;5609;49.466;8.468;2023-05-07T00:08:19;3.17;;;2.70;;
11111;SDS011;5609;49.466;8.468;2023-05-07T00:10:46;4.00;;;3.10;;
11111;SDS011;5609;49.466;8.468;2023-05-07T00:13:13;3.90;;;2.90;;
11111;SDS011;5609;49.466;8.468;2023-05-07T00:15:42;3.07;;;2.60;;
11111;SDS011;5609;49.466;8.468;2023-05-07T00:18:09;3.50;;;2.60;;
11111;SDS011;5609;49.466;8.468;2023-05-07T00:20:36;3.50;;;2.97;;
11111;SDS011;5609;49.466;8.468;2023-05-07T00:23:03;3.20;;;2.90;;
11111;SDS011;5609;49.466;8.468;2023-05-07T00:25:30;3.30;;;3.00;;
11111;SDS011;5609;49.466;8.468;2023-05-07T00:27:57;4.77;;;3.00;;
11111;SDS011;5609;49.466;8.468;2023-05-07T00:30:28;3.47;;;2.97;;
11111;SDS011;5609;49.466;8.468;2023-05-07T00:32:56;4.07;;;2.90;;
11111;SDS011;5609;49.466;8.468;2023-05-07T00:35:24;3.67;;;3.00;;
11111;SDS011;5609;49.466;8.468;2023-05-07T00:37:51;3.87;;;2.77;;
11111;SDS011;5609;49.466;8.468;2023-05-07T00:40:18;2.93;;;2.50;;
11111;SDS011;5609;49.466;8.468;2023-05-07T00:42:45;3.87;;;3.13;;
11111;SDS011;5609;49.466;8.468;2023-05-07T00:45:14;3.77;;;2.97;;
11111;SDS011;5609;49.466;8.468;2023-05-07T00:47:41;3.67;;;3.10;;
11111;SDS011;5609;49.466;8.468;2023-05-07T00:50:10;4.47;;;3.10;;
11111;SDS011;5609;49.466;8.468;2023-05-07T00:52:37;3.60;;;3.03;;
11111;SDS011;5609;49.466;8.468;2023-05-07T00:55:05;4.13;;;3.10;;
11111;SDS011;5609;49.466;8.468;2023-05-07T00:57:32;3.50;;;3.20;;
11111;SDS011;5609;49.466;8.468;2023-05-07T01:00:00;3.70;;;3.30;;
11111;SDS011;5609;49.466;8.468;2023-05-07T01:02:27;4.20;;;3.20;;
11111;SDS011;5609;49.466;8.468;2023-05-07T01:04:54;4.77;;;3.10;;
11111;SDS011;5609;49.466;8.468;2023-05-07T01:07:23;3.73;;;2.83;;
11111;SDS011;5609;49.466;8.468;2023-05-07T01:09:50;4.23;;;3.03;;
11111;SDS011;5609;49.466;8.468;2023-05-07T01:12:18;3.50;;;3.00;;
11111;SDS011;5609;49.466;8.468;2023-05-07T01:14:45;3.50;;;3.20;;
11111;SDS011;5609;49.466;8.468;2023-05-07T01:17:13;3.83;;;3.20;;
11111;SDS011;5609;49.466;8.468;2023-05-07T01:19:40;3.40;;;3.10;;
11111;SDS011;5609;49.466;8.468;2023-05-07T01:22:09;3.47;;;3.17;;
11111;SDS011;5609;49.466;8.468;2023-05-07T01:24:38;3.60;;;3.30;;
11111;SDS011;5609;49.466;8.468;2023-05-07T01:27:05;3.50;;;3.10;;
11111;SDS011;5609;49.466;8.468;2023-05-07T01:29:32;4.13;;;3.10;;
11111;SDS011;5609;49.466;8.468;2023-05-07T01:32:00;4.17;;;3.50;;
11111;SDS011;5609;49.466;8.468;2023-05-07T01:34:28;3.40;;;3.10;;
11111;SDS011;5609;49.466;8.468;2023-05-07T01:36:56;3.83;;;3.07;;
11111;SDS011;5609;49.466;8.468;2023-05-07T01:39:24;3.33;;;3.03;;
11111;SDS011;5609;49.466;8.468;2023-05-07T01:41:54;4.17;;;3.20;;
11111;SDS011;5609;49.466;8.468;2023-05-07T01:44:21;4.20;;;2.90;;
11111;SDS011;5609;49.466;8.468;2023-05-07T01:46:49;4.07;;;3.00;;
11111;SDS011;5609;49.466;8.468;2023-05-07T01:49:16;3.87;;;3.40;;
11111;SDS011;5609;49.466;8.468;2023-05-07T01:51:43;4.13;;;3.47;;
11111;SDS011;5609;49.466;8.468;2023-05-07T01:54:10;4.87;;;3.70;;
11111;SDS011;5609;49.466;8.468;2023-05-07T01:56:37;5.00;;;3.70;;
11111;SDS011;5609;49.466;8.468;2023-05-07T01:59:06;3.80;;;3.40;;
11111;SDS011;5609;49.466;8.468;2023-05-07T02:01:33;6.10;;;3.43;;
11111;SDS011;5609;49.466;8.468;2023-05-07T02:04:00;4.90;;;3.90;;
11111;SDS011;5609;49.466;8.468;2023-05-07T02:06:27;5.27;;;3.50;;
11111;SDS011;5609;49.466;8.468;2023-05-07T02:08:54;5.20;;;3.70;;
11111;SDS011;5609;49.466;8.468;2023-05-07T02:11:21;4.60;;;3.57;;
11111;SDS011;5609;49.466;8.468;2023-05-07T02:13:48;3.97;;;3.23;;
11111;SDS011;5609;49.466;8.468;2023-05-07T02:16:16;4.40;;;4.00;;
11111;SDS011;5609;49.466;8.468;2023-05-07T02:18:44;4.30;;;3.90;;
11111;SDS011;5609;49.466;8.468;2023-05-07T02:21:11;3.90;;;3.60;;
11111;SDS011;5609;49.466;8.468;2023-05-07T02:23:38;5.53;;;3.70;;
11111;SDS011;5609;49.466;8.468;2023-05-07T02:26:05;4.23;;;3.93;;
11111;SDS011;5609;49.466;8.468;2023-05-07T02:28:33;4.60;;;4.10;;
11111;SDS011;5609;49.466;8.468;2023-05-07T02:31:01;4.63;;;4.23;;
11111;SDS011;5609;49.466;8.468;2023-05-07T02:33:30;5.30;;;3.87;;
11111;SDS011;5609;49.466;8.468;2023-05-07T02:36:04;4.23;;;3.83;;
11111;SDS011;5609;49.466;8.468;2023-05-07T02:38:31;4.03;;;3.70;;
11111;SDS011;5609;49.466;8.468;2023-05-07T02:40:58;6.47;;;4.30;;
11111;SDS011;5609;49.466;8.468;2023-05-07T02:43:26;5.07;;;3.73;;
11111;SDS011;5609;49.466;8.468;2023-05-07T02:45:59;4.77;;;4.10;;
11111;SDS011;5609;49.466;8.468;2023-05-07T02:48:27;4.20;;;3.80;;
11111;SDS011;5609;49.466;8.468;2023-05-07T02:50:56;6.30;;;3.90;;
11111;SDS011;5609;49.466;8.468;2023-05-07T02:53:23;4.40;;;4.00;;
11111;SDS011;5609;49.466;8.468;2023-05-07T02:55:51;4.60;;;4.10;;
11111;SDS011;5609;49.466;8.468;2023-05-07T02:58:18;4.67;;;4.27;;
11111;SDS011;5609;49.466;8.468;2023-05-07T03:00:45;4.50;;;4.10;;
11111;SDS011;5609;49.466;8.468;2023-05-07T03:03:13;6.17;;;4.40;;
11111;SDS011;5609;49.466;8.468;2023-05-07T03:05:40;5.10;;;4.60;;
11111;SDS011;5609;49.466;8.468;2023-05-07T03:08:09;5.20;;;4.70;;
11111;SDS011;5609;49.466;8.468;2023-05-07T03:10:36;8.87;;;4.63;;
11111;SDS011;5609;49.466;8.468;2023-05-07T03:13:03;4.93;;;4.33;;
11111;SDS011;5609;49.466;8.468;2023-05-07T03:15:30;4.90;;;4.40;;
11111;SDS011;5609;49.466;8.468;2023-05-07T03:17:57;5.47;;;4.60;;
11111;SDS011;5609;49.466;8.468;2023-05-07T03:20:24;5.73;;;4.20;;
11111;SDS011;5609;49.466;8.468;2023-05-07T03:22:51;4.37;;;3.97;;
11111;SDS011;5609;49.466;8.468;2023-05-07T03:25:20;5.03;;;4.47;;
11111;SDS011;5609;49.466;8.468;2023-05-07T03:27:47;4.80;;;4.37;;
11111;SDS011;5609;49.466;8.468;2023-05-07T03:30:14;5.13;;;4.63;;
11111;SDS011;5609;49.466;8.468;2023-05-07T03:32:41;5.60;;;4.40;;
11111;SDS011;5609;49.466;8.468;2023-05-07T03:35:08;5.73;;;4.40;;
11111;SDS011;5609;49.466;8.468;2023-05-07T03:37:35;5.07;;;4.57;;
11111;SDS011;5609;49.466;8.468;2023-05-07T03:40:02;4.83;;;4.40;;
11111;SDS011;5609;49.466;8.468;2023-05-07T03:42:31;4.77;;;4.33;;
11111;SDS011;5609;49.466;8.468;2023-05-07T03:44:58;4.50;;;4.10;;
11111;SDS011;5609;49.466;8.468;2023-05-07T03:47:25;4.77;;;4.30;;
11111;SDS011;5609;49.466;8.468;2023-05-07T03:49:52;5.93;;;4.60;;
11111;SDS011;5609;49.466;8.468;2023-05-07T03:52:20;4.80;;;4.23;;
11111;SDS011;5609;49.466;8.468;2023-05-07T03:54:50;5.43;;;4.60;;
11111;SDS011;5609;49.466;8.468;2023-05-07T03:57:18;5.10;;;4.60;;
11111;SDS011;5609;49.466;8.468;2023-05-07T03:59:46;5.03;;;4.53;;
11111;SDS011;5609;49.466;8.468;2023-05-07T04:02:13;4.80;;;4.30;;
11111;SDS011;5609;49.466;8.468;2023-05-07T04:04:40;5.73;;;4.37;;
11111;SDS011;5609;49.466;8.468;2023-05-07T04:07:07;6.10;;;4.27;;
11111;SDS011;5609;49.466;8.468;2023-05-07T04:09:35;6.33;;;4.60;;
11111;SDS011;5609;49.466;8.468;2023-05-07T04:12:02;5.17;;;4.27;;
11111;SDS011;5609;49.466;8.468;2023-05-07T04:14:29;4.47;;;3.83;;
11111;SDS011;5609;49.466;8.468;2023-05-07T04:16:58;4.87;;;4.30;;
11111;SDS011;5609;49.466;8.468;2023-05-07T04:19:25;4.60;;;4.20;;
11111;SDS011;5609;49.466;8.468;2023-05-07T04:21:52;4.50;;;4.10;;
11111;SDS011;5609;49.466;8.468;2023-05-07T04:24:19;5.60;;;4.00;;
11111;SDS011;5609;49.466;8.468;2023-05-07T04:26:46;4.90;;;4.37;;
11111;SDS011;5609;49.466;8.468;2023-05-07T04:29:13;5.43;;;4.00;;
11111;SDS011;5609;49.466;8.468;2023-05-07T04:31:40;5.47;;;4.30;;
11111;SDS011;5609;49.466;8.468;2023-05-07T04:34:10;5.33;;;4.30;;
11111;SDS011;5609;49.466;8.468;2023-05-07T04:36:38;5.30;;;4.40;;
11111;SDS011;5609;49.466;8.468;2023-05-07T04:39:05;5.97;;;4.00;;
11111;SDS011;5609;49.466;8.468;2023-05-07T04:41:32;5.67;;;4.40;;
11111;SDS011;5609;49.466;8.468;2023-05-07T04:44:01;6.93;;;4.80;;
11111;SDS011;5609;49.466;8.468;2023-05-07T04:46:29;5.73;;;4.30;;
11111;SDS011;5609;49.466;8.468;2023-05-07T04:48:56;4.90;;;4.20;;
11111;SDS011;5609;49.466;8.468;2023-05-07T04:51:25;4.80;;;4.23;;
11111;SDS011;5609;49.466;8.468;2023-05-07T04:53:53;4.53;;;4.10;;
11111;SDS011;5609;49.466;8.468;2023-05-07T04:56:20;4.80;;;4.27;;
11111;SDS011;5609;49.466;8.468;2023-05-07T04:58:47;6.43;;;4.53;;
11111;SDS011;5609;49.466;8.468;2023-05-07T05:01:14;5.43;;;4.20;;
11111;SDS011;5609;49.466;8.468;2023-05-07T05:03:41;5.17;;;4.47;;
11111;SDS011;5609;49.466;8.468;2023-05-07T05:06:08;5.17;;;4.47;;
11111;SDS011;5609;49.466;8.468;2023-05-07T05:08:36;5.57;;;4.43;;
11111;SDS011;5609;49.466;8.468;2023-05-07T05:11:03;5.93;;;4.30;;
11111;SDS011;5609;49.466;8.468;2023-05-07T05:13:30;5.60;;;4.80;;
11111;SDS011;5609;49.466;8.468;2023-05-07T05:15:57;5.30;;;4.33;;
11111;SDS011;5609;49.466;8.468;2023-05-07T05:18:25;5.90;;;4.57;;
11111;SDS011;5609;49.466;8.468;2023-05-07T05:20:52;6.23;;;4.37;;
11111;SDS011;5609;49.466;8.468;2023-05-07T05:23:19;5.67;;;4.50;;
11111;SDS011;5609;49.466;8.468;2023-05-07T05:25:47;5.20;;;4.50;;
11111;SDS011;5609;49.466;8.468;2023-05-07T05:28:14;5.10;;;4.57;;
11111;SDS011;5609;49.466;8.468;2023-05-07T05:30:41;7.70;;;4.53;;
11111;SDS011;5609;49.466;8.468;2023-05-07T05:33:08;4.97;;;4.40;;
11111;SDS011;5609;49.466;8.468;2023-05-07T05:35:35;5.50;;;4.80;;
11111;SDS011;5609;49.466;8.468;2023-05-07T05:38:02;5.30;;;4.70;;
11111;SDS011;5609;49.466;8.468;2023-05-07T05:40:30;6.00;;;5.20;;
11111;SDS011;5609;49.466;8.468;2023-05-07T05:42:58;5.40;;;4.90;;
11111;SDS011;5609;49.466;8.468;2023-05-07T05:45:25;5.27;;;4.77;;
11111;SDS011;5609;49.466;8.468;2023-05-07T05:47:52;6.07;;;5.40;;
11111;SDS011;5609;49.466;8.468;2023-05-07T05:50:19;5.60;;;5.10;;
11111;SDS011;5609;49.466;8.468;2023-05-07T05:52:46;5.50;;;5.00;;
11111;SDS011;5609;49.466;8.468;2023-05-07T05:55:14;5.57;;;5.07;;
11111;SDS011;5609;49.466;8.468;2023-05-07T05:57:41;5.20;;;4.70;;
11111;SDS011;5609;49.466;8.468;2023-05-07T06:00:10;5.00;;;4.50;;
11111;SDS011;5609;49.466;8.468;2023-05-07T06:02:37;5.17;;;4.63;;
11111;SDS011;5609;49.466;8.468;2023-05-07T06:05:04;5.23;;;4.73;;
11111;SDS011;5609;49.466;8.468;2023-05-07T06:07:31;5.00;;;4.60;;
11111;SDS011;5609;49.466;8.468;2023-05-07T06:09:59;5.07;;;4.67;;
11111;SDS011;5609;49.466;8.468;2023-05-07T06:12:26;5.13;;;4.70;;
11111;SDS011;5609;49.466;8.468;2023-05-07T06:14:53;4.90;;;4.50;;
11111;SDS011;5609;49.466;8.468;2023-05-07T06:17:22;4.70;;;4.27;;
11111;SDS011;5609;49.466;8.468;2023-05-07T06:19:49;4.90;;;4.40;;
11111;SDS011;5609;49.466;8.468;2023-05-07T06:22:16;4.80;;;4.40;;
11111;SDS011;5609;49.466;8.468;2023-05-07T06:24:43;5.23;;;4.40;;
11111;SDS011;5609;49.466;8.468;2023-05-07T06:27:11;4.67;;;4.27;;
11111;SDS011;5609;49.466;8.468;2023-05-07T06:29:38;5.13;;;4.20;;
11111;SDS011;5609;49.466;8.468;2023-05-07T06:32:08;5.27;;;4.23;;
11111;SDS011;5609;49.466;8.468;2023-05-07T06:34:36;4.97;;;4.37;;
11111;SDS011;5609;49.466;8.468;2023-05-07T06:37:03;4.67;;;4.27;;
11111;SDS011;5609;49.466;8.468;2023-05-07T06:39:30;5.03;;;4.40;;
11111;SDS011;5609;49.466;8.468;2023-05-07T06:41:57;5.23;;;4.60;;
11111;SDS011;5609;49.466;8.468;2023-05-07T06:44:25;5.27;;;4.47;;
11111;SDS011;5609;49.466;8.468;2023-05-07T06:46:52;4.80;;;4.30;;
11111;SDS011;5609;49.466;8.468;2023-05-07T06:49:19;5.93;;;4.57;;
11111;SDS011;5609;49.466;8.468;2023-05-07T06:51:47;5.30;;;4.80;;
11111;SDS011;5609;49.466;8.468;2023-05-07T06:54:14;5.00;;;4.43;;
11111;SDS011;5609;49.466;8.468;2023-05-07T06:56:41;4.57;;;4.17;;
11111;SDS011;5609;49.466;8.468;2023-05-07T06:59:09;4.83;;;4.33;;
11111;SDS011;5609;49.466;8.468;2023-05-07T07:01:36;5.10;;;4.60;;
11111;SDS011;5609;49.466;8.468;2023-05-07T07:04:03;5.20;;;4.70;;
11111;SDS011;5609;49.466;8.468;2023-05-07T07:06:30;5.77;;;5.03;;
11111;SDS011;5609;49.466;8.468;2023-05-07T07:08:59;5.73;;;5.20;;
11111;SDS011;5609;49.466;8.468;2023-05-07T07:11:26;5.53;;;5.00;;
11111;SDS011;5609;49.466;8.468;2023-05-07T07:13:53;5.30;;;4.90;;
11111;SDS011;5609;49.466;8.468;2023-05-07T07:16:20;5.90;;;4.90;;
11111;SDS011;5609;49.466;8.468;2023-05-07T07:18:47;5.33;;;4.83;;
11111;SDS011;5609;49.466;8.468;2023-05-07T07:21:14;6.60;;;5.10;;
11111;SDS011;5609;49.466;8.468;2023-05-07T07:23:41;5.97;;;5.37;;
11111;SDS011;5609;49.466;8.468;2023-05-07T07:26:10;6.43;;;4.70;;
11111;SDS011;5609;49.466;8.468;2023-05-07T07:28:41;5.30;;;4.80;;
11111;SDS011;5609;49.466;8.468;2023-05-07T07:31:08;5.73;;;5.10;;
11111;SDS011;5609;49.466;8.468;2023-05-07T07:33:35;5.90;;;5.37;;
11111;SDS011;5609;49.466;8.468;2023-05-07T07:36:03;6.33;;;5.30;;
11111;SDS011;5609;49.466;8.468;2023-05-07T07:38:30;6.47;;;5.33;;
11111;SDS011;5609;49.466;8.468;2023-05-07T07:40:57;5.60;;;5.10;;
11111;SDS011;5609;49.466;8.468;2023-05-07T07:43:25;5.50;;;5.00;;
11111;SDS011;5609;49.466;8.468;2023-05-07T07:45:52;5.27;;;4.77;;
11111;SDS011;5609;49.466;8.468;2023-05-07T07:48:19;5.13;;;4.37;;
11111;SDS011;5609;49.466;8.468;2023-05-07T07:50:48;5.43;;;4.13;;
11111;SDS011;5609;49.466;8.468;2023-05-07T07:53:16;4.30;;;4.00;;
11111;SDS011;5609;49.466;8.468;2023-05-07T07:55:43;7.20;;;4.67;;
11111;SDS011;5609;49.466;8.468;2023-05-07T07:58:10;4.30;;;3.90;;
11111;SDS011;5609;49.466;8.468;2023-05-07T08:00:38;4.50;;;3.90;;
11111;SDS011;5609;49.466;8.468;2023-05-07T08:03:05;4.23;;;3.70;;
11111;SDS011;5609;49.466;8.468;2023-05-07T08:05:32;4.43;;;3.63;;
11111;SDS011;5609;49.466;8.468;2023-05-07T08:08:00;4.20;;;3.60;;
11111;SDS011;5609;49.466;8.468;2023-05-07T08:10:27;4.23;;;3.83;;
11111;SDS011;5609;49.466;8.468;2023-05-07T08:12:54;4.40;;;4.00;;
11111;SDS011;5609;49.466;8.468;2023-05-07T08:15:21;5.53;;;3.73;;
11111;SDS011;5609;49.466;8.468;2023-05-07T08:17:49;4.43;;;3.70;;
11111;SDS011;5609;49.466;8.468;2023-05-07T08:20:17;3.77;;;3.40;;
11111;SDS011;5609;49.466;8.468;2023-05-07T08:22:44;3.80;;;3.40;;
11111;SDS011;5609;49.466;8.468;2023-05-07T08:25:11;4.90;;;3.87;;
11111;SDS011;5609;49.466;8.468;2023-05-07T08:27:38;4.73;;;3.97;;
11111;SDS011;5609;49.466;8.468;2023-05-07T08:30:06;3.97;;;3.57;;
11111;SDS011;5609;49.466;8.468;2023-05-07T08:32:33;3.60;;;3.30;;
11111;SDS011;5609;49.466;8.468;2023-05-07T08:35:01;4.73;;;3.90;;
11111;SDS011;5609;49.466;8.468;2023-05-07T08:37:28;4.83;;;3.97;;
11111;SDS011;5609;49.466;8.468;2023-05-07T08:39:55;4.23;;;3.57;;
11111;SDS011;5609;49.466;8.468;2023-05-07T08:42:23;3.80;;;3.40;;
11111;SDS011;5609;49.466;8.468;2023-05-07T08:44:51;5.13;;;3.23;;
11111;SDS011;5609;49.466;8.468;2023-05-07T08:47:19;4.27;;;3.20;;
11111;SDS011;5609;49.466;8.468;2023-05-07T08:49:47;3.67;;;3.10;;
11111;SDS011;5609;49.466;8.468;2023-05-07T08:52:16;3.77;;;2.60;;
11111;SDS011;5609;49.466;8.468;2023-05-07T08:54:45;2.63;;;2.40;;
11111;SDS011;5609;49.466;8.468;2023-05-07T08:57:12;2.70;;;2.43;;
11111;SDS011;5609;49.466;8.468;2023-05-07T08:59:40;3.63;;;2.30;;
11111;SDS011;5609;49.466;8.468;2023-05-07T09:02:07;2.80;;;2.50;;
11111;SDS011;5609;49.466;8.468;2023-05-07T09:04:36;2.60;;;2.40;;
11111;SDS011;5609;49.466;8.468;2023-05-07T09:07:03;3.00;;;2.80;;
11111;SDS011;5609;49.466;8.468;2023-05-07T09:09:33;4.07;;;2.80;;
11111;SDS011;5609;49.466;8.468;2023-05-07T09:12:00;3.97;;;2.70;;
11111;SDS011;5609;49.466;8.468;2023-05-07T09:14:28;4.30;;;2.93;;
11111;SDS011;5609;49.466;8.468;2023-05-07T09:16:55;4.27;;;3.13;;
11111;SDS011;5609;49.466;8.468;2023-05-07T09:19:23;2.80;;;2.50;;
11111;SDS011;5609;49.466;8.468;2023-05-07T09:21:54;3.63;;;2.30;;
11111;SDS011;5609;49.466;8.468;2023-05-07T09:24:24;2.40;;;2.20;;
11111;SDS011;5609;49.466;8.468;2023-05-07T09:26:53;4.23;;;2.70;;
11111;SDS011;5609;49.466;8.468;2023-05-07T09:29:20;2.73;;;2.30;;
11111;SDS011;5609;49.466;8.468;2023-05-07T09:31:47;4.33;;;2.43;;
11111;SDS011;5609;49.466;8.468;2023-05-07T09:34:14;2.67;;;2.17;;
11111;SDS011;5609;49.466;8.468;2023-05-07T09:36:42;2.80;;;2.50;;
11111;SDS011;5609;49.466;8.468;2023-05-07T09:39:09;3.07;;;2.77;;
11111;SDS011;5609;49.466;8.468;2023-05-07T09:41:43;2.70;;;2.43;;
11111;SDS011;5609;49.466;8.468;2023-05-07T09:44:11;2.63;;;2.40;;
11111;SDS011;5609;49.466;8.468;2023-05-07T09:46:39;2.30;;;2.10;;
11111;SDS011;5609;49.466;8.468;2023-05-07T09:49:09;2.53;;;2.00;;
11111;SDS011;5609;49.466;8.468;2023-05-07T09:51:41;3.97;;;2.40;;
11111;SDS011;5609;49.466;8.468;2023-05-07T09:54:08;3.57;;;2.30;;
11111;SDS011;5609;49.466;8.468;2023-05-07T09:56:35;2.60;;;2.40;;
11111;SDS011;5609;49.466;8.468;2023-05-07T09:59:03;3.93;;;2.67;;
11111;SDS011;5609;49.466;8.468;2023-05-07T10:01:31;3.03;;;2.40;;
11111;SDS011;5609;49.466;8.468;2023-05-07T10:04:01;2.90;;;2.50;;
11111;SDS011;5609;49.466;8.468;2023-05-07T10:06:29;3.13;;;2.60;;
11111;SDS011;5609;49.466;8.468;2023-05-07T10:08:56;3.20;;;2.40;;
11111;SDS011;5609;49.466;8.468;2023-05-07T10:11:24;3.07;;;2.43;;
11111;SDS011;5609;49.466;8.468;2023-05-07T10:13:51;2.60;;;2.40;;
11111;SDS011;5609;49.466;8.468;2023-05-07T10:16:19;2.93;;;2.20;;
11111;SDS011;5609;49.466;8.468;2023-05-07T10:18:47;3.03;;;2.40;;
11111;SDS011;5609;49.466;8.468;2023-05-07T10:21:16;2.57;;;2.33;;
11111;SDS011;5609;49.466;8.468;2023-05-07T10:23:44;3.13;;;2.23;;
11111;SDS011;5609;49.466;8.468;2023-05-07T10:26:12;2.20;;;2.00;;
11111;SDS011;5609;49.466;8.468;2023-05-07T10:28:41;2.73;;;2.30;;
11111;SDS011;5609;49.466;8.468;2023-05-07T10:31:13;3.03;;;2.27;;
11111;SDS011;5609;49.466;8.468;2023-05-07T10:33:41;3.30;;;2.00;;
11111;SDS011;5609;49.466;8.468;2023-05-07T10:36:10;2.10;;;1.90;;
11111;SDS011;5609;49.466;8.468;2023-05-07T10:38:37;1.90;;;1.70;;
11111;SDS011;5609;49.466;8.468;2023-05-07T10:41:05;3.73;;;2.27;;
11111;SDS011;5609;49.466;8.468;2023-05-07T10:43:39;2.40;;;1.90;;
11111;SDS011;5609;49.466;8.468;2023-05-07T10:46:10;2.23;;;2.00;;
11111;SDS011;5609;49.466;8.468;2023-05-07T10:51:21;2.20;;;2.00;;
11111;SDS011;5609;49.466;8.468;2023-05-07T10:53:48;2.67;;;1.93;;
11111;SDS011;5609;49.466;8.468;2023-05-07T10:56:29;4.67;;;2.10;;
11111;SDS011;5609;49.466;8.468;2023-05-07T10:58:59;2.00;;;1.80;;
11111;SDS011;5609;49.466;8.468;2023-05-07T11:01:52;2.70;;;1.90;;
11111;SDS011;5609;49.466;8.468;2023-05-07T11:04:20;3.07;;;2.00;;
11111;SDS011;5609;49.466;8.468;2023-05-07T11:15:02;1.90;;;1.80;;
11111;SDS011;5609;49.466;8.468;2023-05-07T11:17:31;2.37;;;1.90;;
11111;SDS011;5609;49.466;8.468;2023-05-07T11:19:59;2.33;;;1.90;;
11111;SDS011;5609;49.466;8.468;2023-05-07T11:22:36;2.03;;;1.80;;
11111;SDS011;5609;49.466;8.468;2023-05-07T11:25:06;2.90;;;1.90;;
11111;SDS011;5609;49.466;8.468;2023-05-07T11:27:33;2.47;;;1.90;;
11111;SDS011;5609;49.466;8.468;2023-05-07T11:30:00;2.50;;;1.80;;
11111;SDS011;5609;49.466;8.468;2023-05-07T11:32:27;2.33;;;1.80;;
11111;SDS011;5609;49.466;8.468;2023-05-07T11:34:56;2.10;;;1.60;;
11111;SDS011;5609;49.466;8.468;2023-05-07T11:37:24;2.40;;;1.63;;
11111;SDS011;5609;49.466;8.468;2023-05-07T11:39:51;1.80;;;1.60;;
11111;SDS011;5609;49.466;8.468;2023-05-07T11:42:29;1.80;;;1.70;;
11111;SDS011;5609;49.466;8.468;2023-05-07T11:44:56;2.13;;;1.63;;
11111;SDS011;5609;49.466;8.468;2023-05-07T11:47:24;3.03;;;1.70;;
11111;SDS011;5609;49.466;8.468;2023-05-07T11:49:51;2.27;;;1.70;;
11111;SDS011;5609;49.466;8.468;2023-05-07T11:52:20;3.10;;;1.50;;
11111;SDS011;5609;49.466;8.468;2023-05-07T11:54:51;2.37;;;1.60;;
11111;SDS011;5609;49.466;8.468;2023-05-07T11:57:18;2.40;;;1.50;;
11111;SDS011;5609;49.466;8.468;2023-05-07T11:59:45;2.30;;;1.53;;
11111;SDS011;5609;49.466;8.468;2023-05-07T12:02:13;1.67;;;1.57;;
11111;SDS011;5609;49.466;8.468;2023-05-07T12:04:40;3.03;;;1.60;;
11111;SDS011;5609;49.466;8.468;2023-05-07T12:07:10;1.87;;;1.60;;
11111;SDS011;5609;49.466;8.468;2023-05-07T12:09:39;4.00;;;1.60;;
11111;SDS011;5609;49.466;8.468;2023-05-07T12:12:06;2.07;;;1.60;;
11111;SDS011;5609;49.466;8.468;2023-05-07T12:14:37;1.87;;;1.53;;
11111;SDS011;5609;49.466;8.468;2023-05-07T12:17:05;3.90;;;1.63;;
11111;SDS011;5609;49.466;8.468;2023-05-07T12:19:32;2.03;;;1.53;;
11111;SDS011;5609;49.466;8.468;2023-05-07T12:22:00;2.20;;;1.60;;
11111;SDS011;5609;49.466;8.468;2023-05-07T12:24:27;1.70;;;1.60;;
11111;SDS011;5609;49.466;8.468;2023-05-07T12:26:56;2.33;;;1.50;;
11111;SDS011;5609;49.466;8.468;2023-05-07T12:29:23;2.63;;;1.60;;
11111;SDS011;5609;49.466;8.468;2023-05-07T12:31:50;2.47;;;1.60;;
11111;SDS011;5609;49.466;8.468;2023-05-07T12:34:17;2.63;;;1.67;;
11111;SDS011;5609;49.466;8.468;2023-05-07T12:36:44;2.60;;;1.50;;
11111;SDS011;5609;49.466;8.468;2023-05-07T12:39:14;2.70;;;1.83;;
11111;SDS011;5609;49.466;8.468;2023-05-07T12:41:54;1.60;;;1.33;;
11111;SDS011;5609;49.466;8.468;2023-05-07T12:44:23;4.87;;;1.60;;
11111;SDS011;5609;49.466;8.468;2023-05-07T12:46:50;3.07;;;1.60;;
11111;SDS011;5609;49.466;8.468;2023-05-07T12:49:17;2.27;;;1.27;;
11111;SDS011;5609;49.466;8.468;2023-05-07T12:51:46;2.43;;;1.57;;
11111;SDS011;5609;49.466;8.468;2023-05-07T12:54:14;2.23;;;1.57;;
11111;SDS011;5609;49.466;8.468;2023-05-07T12:56:41;1.67;;;1.50;;
11111;SDS011;5609;49.466;8.468;2023-05-07T12:59:08;3.00;;;1.73;;
11111;SDS011;5609;49.466;8.468;2023-05-07T13:01:36;2.87;;;1.60;;
11111;SDS011;5609;49.466;8.468;2023-05-07T13:04:03;1.93;;;1.53;;
11111;SDS011;5609;49.466;8.468;2023-05-07T13:06:31;2.13;;;1.43;;
11111;SDS011;5609;49.466;8.468;2023-05-07T13:08:58;1.97;;;1.50;;
11111;SDS011;5609;49.466;8.468;2023-05-07T13:11:25;2.90;;;1.60;;
11111;SDS011;5609;49.466;8.468;2023-05-07T13:13:52;2.20;;;1.60;;
11111;SDS011;5609;49.466;8.468;2023-05-07T13:16:19;1.80;;;1.50;;
11111;SDS011;5609;49.466;8.468;2023-05-07T13:18:47;2.20;;;1.50;;
11111;SDS011;5609;49.466;8.468;2023-05-07T13:21:14;1.70;;;1.50;;
11111;SDS011;5609;49.466;8.468;2023-05-07T13:23:41;1.70;;;1.40;;
11111;SDS011;5609;49.466;8.468;2023-05-07T13:26:08;1.63;;;1.40;;
11111;SDS011;5609;49.466;8.468;2023-05-07T13:28:35;2.80;;;1.60;;
11111;SDS011;5609;49.466;8.468;2023-05-07T13:31:02;2.70;;;1.40;;
11111;SDS011;5609;49.466;8.468;2023-05-07T13:33:29;2.17;;;1.43;;
11111;SDS011;5609;49.466;8.468;2023-05-07T13:35:58;2.90;;;1.53;;
11111;SDS011;5609;49.466;8.468;2023-05-07T13:38:25;2.10;;;1.70;;
11111;SDS011;5609;49.466;8.468;2023-05-07T13:40:52;2.00;;;1.60;;
11111;SDS011;5609;49.466;8.468;2023-05-07T13:43:20;1.73;;;1.50;;
11111;SDS011;5609;49.466;8.468;2023-05-07T13:45:47;2.40;;;1.50;;
11111;SDS011;5609;49.466;8.468;2023-05-07T13:48:14;4.07;;;1.67;;
11111;SDS011;5609;49.466;8.468;2023-05-07T13:50:41;2.07;;;1.40;;
11111;SDS011;5609;49.466;8.468;2023-05-07T13:53:09;3.47;;;1.70;;
11111;SDS011;5609;49.466;8.468;2023-05-07T13:55:36;2.10;;;1.60;;
11111;SDS011;5609;49.466;8.468;2023-05-07T13:58:03;3.53;;;1.73;;
11111;SDS011;5609;49.466;8.468;2023-05-07T14:00:30;1.73;;;1.60;;
11111;SDS011;5609;49.466;8.468;2023-05-07T14:02:57;2.57;;;1.80;;
11111;SDS011;5609;49.466;8.468;2023-05-07T14:05:24;2.20;;;2.00;;
11111;SDS011;5609;49.466;8.468;2023-05-07T14:07:52;2.67;;;2.30;;
11111;SDS011;5609;49.466;8.468;2023-05-07T14:10:21;2.70;;;2.20;;
11111;SDS011;5609;49.466;8.468;2023-05-07T14:12:48;3.40;;;1.90;;
11111;SDS011;5609;49.466;8.468;2023-05-07T14:15:15;2.93;;;2.20;;
11111;SDS011;5609;49.466;8.468;2023-05-07T14:17:42;3.87;;;2.37;;
11111;SDS011;5609;49.466;8.468;2023-05-07T14:20:10;2.37;;;2.17;;
11111;SDS011;5609;49.466;8.468;2023-05-07T14:22:37;3.30;;;2.37;;
11111;SDS011;5609;49.466;8.468;2023-05-07T14:25:04;4.30;;;2.93;;
11111;SDS011;5609;49.466;8.468;2023-05-07T14:27:33;4.27;;;2.70;;
11111;SDS011;5609;49.466;8.468;2023-05-07T14:30:00;5.93;;;3.50;;
11111;SDS011;5609;49.466;8.468;2023-05-07T14:32:27;4.90;;;3.10;;
11111;SDS011;5609;49.466;8.468;2023-05-07T14:34:54;6.37;;;3.90;;
11111;SDS011;5609;49.466;8.468;2023-05-07T14:37:21;5.17;;;3.90;;
11111;SDS011;5609;49.466;8.468;2023-05-07T14:39:49;5.40;;;3.17;;
11111;SDS011;5609;49.466;8.468;2023-05-07T14:42:16;4.43;;;3.57;;
11111;SDS011;5609;49.466;8.468;2023-05-07T14:44:44;3.97;;;2.80;;
11111;SDS011;5609;49.466;8.468;2023-05-07T14:47:13;5.80;;;3.30;;
11111;SDS011;5609;49.466;8.468;2023-05-07T14:49:40;4.93;;;3.10;;
11111;SDS011;5609;49.466;8.468;2023-05-07T14:52:08;4.40;;;3.40;;
11111;SDS011;5609;49.466;8.468;2023-05-07T14:54:36;4.30;;;3.37;;
11111;SDS011;5609;49.466;8.468;2023-05-07T14:57:04;5.33;;;3.00;;
11111;SDS011;5609;49.466;8.468;2023-05-07T14:59:31;4.27;;;2.73;;
11111;SDS011;5609;49.466;8.468;2023-05-07T15:02:00;3.43;;;3.00;;
11111;SDS011;5609;49.466;8.468;2023-05-07T15:04:27;4.90;;;3.20;;
11111;SDS011;5609;49.466;8.468;2023-05-07T15:06:54;5.67;;;3.80;;
11111;SDS011;5609;49.466;8.468;2023-05-07T15:09:21;6.73;;;4.00;;
11111;SDS011;5609;49.466;8.468;2023-05-07T15:11:48;8.03;;;3.93;;
11111;SDS011;5609;49.466;8.468;2023-05-07T15:14:15;6.53;;;3.67;;